Hauptseite
METAR-TAF:

METAR-TAF

Flughäfen :

Flughafen Sitten

Sion, Schweiz

Breite: 46-13N, Länge: 007-20E, Höhe: 482 m

Beobachtung

Neuester Wetterbericht von vor 10 Minuten, um 04:20 UTC
Wind 1 kt aus unterschiedlichen Richtungen
Temperatur 13°C
Luftfeuchtigkeit 100%
Luftdruck 1006 hPa
Sichtweite 10 km oder mehr
keine Wolken unter 1500 m und keine Kumulonimbus oder Gewitterwolken

METAR: LSGS 070420Z AUTO VRB01KT CAVOK 13/13 Q1006

Zeit: 06:30 (04:30 UTC)

Prognose

Neuester Wetterbericht von vor 2 Stunden und 5 Minuten, um 02:25 UTC
Gültige Prognose vom 07 um 03 UTC bis 07 um 12 UTC
Wind 3 kt aus unterschiedlichen Richtungen
Sichtweite 10 km oder mehr
Aufgelockert bewölkt in der Höhe von 4000 ft
Durchbrochene Bewölkung in der Höhe von 6000 ft
Zeitweise
vom 07 um 03 UTC bis 07 um 12 UTC
Regenschauer

TAF: LSGS 070225Z 0703/0712 VRB03KT 9999 SCT040 BKN060 TEMPO 0703/0712 SHRA

Wetterbeobachtungen und Prognosen von mehr als 4000 Flughäfen (METAR und TAF Bericht).

Die verfügbaren Stationen werden durch gelbe und rote Markierungen auf der Karte dargestellt.

Führen Sie die Maus auf sie, um den Namen der Station zu sehen.

Darauf klicken, um die Beobachtung von Wetterbeobachtungen und Prognosen zu sehen.

Um die Karte zu ändern : klicken Sie auf den grünen Tasten mit einem schwarzen Kreuz Zum Vergrößern, auf den grünen Button mit einem Gedankenstrich zu verkleinern, oder auf die grünen Pfeile für benachbarte Karten.


METAR-TAF: